sensor_id;sensor_type;location;lat;lon;timestamp;pressure;altitude;pressure_sealevel;temperature;humidity
81230;BME280;70701;44.452;18.652;2024-01-30T00:00:25;101170.78;;;-2.02;85.28
81230;BME280;70701;44.452;18.652;2024-01-30T00:02:51;101174.09;;;-2.05;85.89
81230;BME280;70701;44.452;18.652;2024-01-30T00:05:17;101178.13;;;-2.17;85.13
81230;BME280;70701;44.452;18.652;2024-01-30T00:07:42;101187.72;;;-2.19;85.40
81230;BME280;70701;44.452;18.652;2024-01-30T00:10:08;101178.88;;;-2.30;85.60
81230;BME280;70701;44.452;18.652;2024-01-30T00:12:34;101176.53;;;-2.37;85.72
81230;BME280;70701;44.452;18.652;2024-01-30T00:14:59;101201.03;;;-2.31;85.89
81230;BME280;70701;44.452;18.652;2024-01-30T00:17:25;101202.25;;;-2.24;85.72
81230;BME280;70701;44.452;18.652;2024-01-30T00:19:51;101194.56;;;-2.22;85.96
81230;BME280;70701;44.452;18.652;2024-01-30T00:22:17;101188.72;;;-2.29;85.80
81230;BME280;70701;44.452;18.652;2024-01-30T00:24:43;101203.81;;;-2.18;85.89
81230;BME280;70701;44.452;18.652;2024-01-30T00:27:08;101204.00;;;-2.14;85.98
81230;BME280;70701;44.452;18.652;2024-01-30T00:29:34;101217.59;;;-2.09;85.96
81230;BME280;70701;44.452;18.652;2024-01-30T00:32:00;101212.53;;;-2.16;85.13
81230;BME280;70701;44.452;18.652;2024-01-30T00:34:25;101213.97;;;-2.04;85.74
81230;BME280;70701;44.452;18.652;2024-01-30T00:36:51;101208.63;;;-1.96;85.07
81230;BME280;70701;44.452;18.652;2024-01-30T00:39:16;101206.69;;;-2.28;85.48
81230;BME280;70701;44.452;18.652;2024-01-30T00:41:45;101212.38;;;-2.24;85.40
81230;BME280;70701;44.452;18.652;2024-01-30T00:44:10;101205.09;;;-2.29;85.81
81230;BME280;70701;44.452;18.652;2024-01-30T00:46:36;101205.31;;;-2.44;85.82
81230;BME280;70701;44.452;18.652;2024-01-30T00:49:02;101207.63;;;-2.51;86.20
81230;BME280;70701;44.452;18.652;2024-01-30T00:51:27;101201.97;;;-2.98;88.53
81230;BME280;70701;44.452;18.652;2024-01-30T00:53:55;101202.50;;;-2.77;88.11
81230;BME280;70701;44.452;18.652;2024-01-30T00:56:20;101208.88;;;-2.44;87.56
81230;BME280;70701;44.452;18.652;2024-01-30T00:58:46;101207.28;;;-2.12;85.42
81230;BME280;70701;44.452;18.652;2024-01-30T01:01:12;101209.22;;;-2.31;84.42
81230;BME280;70701;44.452;18.652;2024-01-30T01:03:38;101202.97;;;-2.51;85.07
81230;BME280;70701;44.452;18.652;2024-01-30T01:06:07;101193.53;;;-2.59;84.09
81230;BME280;70701;44.452;18.652;2024-01-30T01:08:34;101192.56;;;-2.68;83.63
81230;BME280;70701;44.452;18.652;2024-01-30T01:11:00;101198.03;;;-2.68;83.66
81230;BME280;70701;44.452;18.652;2024-01-30T01:13:25;101199.28;;;-2.79;83.85
81230;BME280;70701;44.452;18.652;2024-01-30T01:15:51;101188.03;;;-2.97;84.14
81230;BME280;70701;44.452;18.652;2024-01-30T01:18:16;101196.16;;;-2.91;84.94
81230;BME280;70701;44.452;18.652;2024-01-30T01:20:42;101207.50;;;-2.84;84.58
81230;BME280;70701;44.452;18.652;2024-01-30T01:23:08;101191.06;;;-2.98;84.55
81230;BME280;70701;44.452;18.652;2024-01-30T01:25:33;101216.00;;;-2.86;84.56
81230;BME280;70701;44.452;18.652;2024-01-30T01:27:59;101203.97;;;-3.04;84.82
81230;BME280;70701;44.452;18.652;2024-01-30T01:30:26;101206.09;;;-3.01;84.20
81230;BME280;70701;44.452;18.652;2024-01-30T01:32:53;101205.28;;;-3.01;84.33
81230;BME280;70701;44.452;18.652;2024-01-30T01:35:23;101204.25;;;-3.05;84.29
81230;BME280;70701;44.452;18.652;2024-01-30T01:37:52;101207.94;;;-2.96;84.84
81230;BME280;70701;44.452;18.652;2024-01-30T01:40:22;101188.97;;;-3.06;84.45
81230;BME280;70701;44.452;18.652;2024-01-30T01:42:49;101199.88;;;-3.06;85.25
81230;BME280;70701;44.452;18.652;2024-01-30T01:45:15;101192.81;;;-3.07;84.45
81230;BME280;70701;44.452;18.652;2024-01-30T01:47:41;101188.16;;;-3.07;84.58
81230;BME280;70701;44.452;18.652;2024-01-30T01:50:07;101192.16;;;-2.99;84.10
81230;BME280;70701;44.452;18.652;2024-01-30T01:52:33;101183.75;;;-3.03;84.17
81230;BME280;70701;44.452;18.652;2024-01-30T01:54:59;101195.03;;;-3.09;83.66
81230;BME280;70701;44.452;18.652;2024-01-30T01:57:25;101189.22;;;-3.27;83.32
81230;BME280;70701;44.452;18.652;2024-01-30T01:59:51;101201.19;;;-3.23;84.41
81230;BME280;70701;44.452;18.652;2024-01-30T02:02:17;101210.00;;;-3.31;84.05
81230;BME280;70701;44.452;18.652;2024-01-30T02:04:45;101190.91;;;-3.31;84.08
81230;BME280;70701;44.452;18.652;2024-01-30T02:07:11;101191.66;;;-3.25;83.60
81230;BME280;70701;44.452;18.652;2024-01-30T02:09:36;101203.38;;;-3.25;83.66
81230;BME280;70701;44.452;18.652;2024-01-30T02:12:02;101192.88;;;-3.37;83.69
81230;BME280;70701;44.452;18.652;2024-01-30T02:14:28;101203.16;;;-3.28;83.43
81230;BME280;70701;44.452;18.652;2024-01-30T02:16:54;101173.19;;;-3.53;84.11
81230;BME280;70701;44.452;18.652;2024-01-30T02:19:19;101207.09;;;-3.16;84.03
81230;BME280;70701;44.452;18.652;2024-01-30T02:21:46;101209.25;;;-3.37;84.58
81230;BME280;70701;44.452;18.652;2024-01-30T02:24:11;101221.25;;;-3.62;85.60
81230;BME280;70701;44.452;18.652;2024-01-30T02:26:37;101215.69;;;-3.81;86.32
81230;BME280;70701;44.452;18.652;2024-01-30T02:29:02;101185.88;;;-3.96;87.50
81230;BME280;70701;44.452;18.652;2024-01-30T02:31:28;101154.53;;;-4.23;89.37
81230;BME280;70701;44.452;18.652;2024-01-30T02:33:54;101211.91;;;-4.14;93.98
81230;BME280;70701;44.452;18.652;2024-01-30T02:36:19;101201.44;;;-4.36;95.53
81230;BME280;70701;44.452;18.652;2024-01-30T02:38:45;101222.75;;;-4.09;96.33
81230;BME280;70701;44.452;18.652;2024-01-30T02:41:12;101207.88;;;-3.93;94.83
81230;BME280;70701;44.452;18.652;2024-01-30T02:43:38;101209.19;;;-3.85;95.70
81230;BME280;70701;44.452;18.652;2024-01-30T02:46:03;101205.28;;;-4.03;95.55
81230;BME280;70701;44.452;18.652;2024-01-30T02:48:29;101220.97;;;-3.95;97.56
81230;BME280;70701;44.452;18.652;2024-01-30T02:50:55;101224.28;;;-3.68;96.56
81230;BME280;70701;44.452;18.652;2024-01-30T02:53:20;101225.13;;;-4.02;96.48
81230;BME280;70701;44.452;18.652;2024-01-30T02:55:46;101217.47;;;-3.66;97.04
81230;BME280;70701;44.452;18.652;2024-01-30T02:58:11;101226.16;;;-3.40;96.53
81230;BME280;70701;44.452;18.652;2024-01-30T03:00:37;101216.63;;;-3.13;95.21
81230;BME280;70701;44.452;18.652;2024-01-30T03:03:03;101214.75;;;-3.18;94.33
81230;BME280;70701;44.452;18.652;2024-01-30T03:05:29;101221.69;;;-3.06;93.48
81230;BME280;70701;44.452;18.652;2024-01-30T03:07:56;101220.56;;;-3.24;92.81
81230;BME280;70701;44.452;18.652;2024-01-30T03:10:21;101209.72;;;-3.29;93.65
81230;BME280;70701;44.452;18.652;2024-01-30T03:12:47;101215.72;;;-3.33;93.26
81230;BME280;70701;44.452;18.652;2024-01-30T03:15:13;101170.56;;;-3.63;92.02
81230;BME280;70701;44.452;18.652;2024-01-30T03:17:38;101199.47;;;-3.67;90.32
81230;BME280;70701;44.452;18.652;2024-01-30T03:20:04;101214.44;;;-3.64;89.79
81230;BME280;70701;44.452;18.652;2024-01-30T03:22:31;101213.22;;;-3.77;90.38
81230;BME280;70701;44.452;18.652;2024-01-30T03:24:57;101210.28;;;-3.86;90.26
81230;BME280;70701;44.452;18.652;2024-01-30T03:27:23;101206.47;;;-3.85;90.05
81230;BME280;70701;44.452;18.652;2024-01-30T03:29:48;101203.31;;;-3.97;90.64
81230;BME280;70701;44.452;18.652;2024-01-30T03:32:14;101206.94;;;-4.07;90.99
81230;BME280;70701;44.452;18.652;2024-01-30T03:34:39;101203.44;;;-4.13;92.49
81230;BME280;70701;44.452;18.652;2024-01-30T03:37:06;101203.56;;;-4.28;93.29
81230;BME280;70701;44.452;18.652;2024-01-30T03:39:31;101204.41;;;-4.33;94.51
81230;BME280;70701;44.452;18.652;2024-01-30T03:41:57;101199.75;;;-4.27;94.53
81230;BME280;70701;44.452;18.652;2024-01-30T03:44:23;101204.91;;;-4.25;94.13
81230;BME280;70701;44.452;18.652;2024-01-30T03:46:48;101198.59;;;-4.21;94.08
81230;BME280;70701;44.452;18.652;2024-01-30T03:49:14;101196.81;;;-4.36;94.54
81230;BME280;70701;44.452;18.652;2024-01-30T03:51:40;101200.63;;;-4.32;94.01
81230;BME280;70701;44.452;18.652;2024-01-30T03:54:05;101194.63;;;-4.34;93.31
81230;BME280;70701;44.452;18.652;2024-01-30T03:56:31;101186.78;;;-4.40;92.74
81230;BME280;70701;44.452;18.652;2024-01-30T03:58:57;101205.56;;;-4.39;93.05
81230;BME280;70701;44.452;18.652;2024-01-30T04:01:25;101203.94;;;-4.45;93.37
81230;BME280;70701;44.452;18.652;2024-01-30T04:03:50;101194.44;;;-4.47;92.73
81230;BME280;70701;44.452;18.652;2024-01-30T04:06:16;101182.91;;;-4.69;92.72
81230;BME280;70701;44.452;18.652;2024-01-30T04:08:42;101219.22;;;-4.49;92.79
81230;BME280;70701;44.452;18.652;2024-01-30T04:11:07;101213.25;;;-4.51;92.36
81230;BME280;70701;44.452;18.652;2024-01-30T04:13:33;101218.69;;;-4.51;91.74
81230;BME280;70701;44.452;18.652;2024-01-30T04:15:59;101202.19;;;-4.65;91.92
81230;BME280;70701;44.452;18.652;2024-01-30T04:18:27;101221.16;;;-4.55;92.18
81230;BME280;70701;44.452;18.652;2024-01-30T04:20:52;101214.94;;;-4.60;92.03
81230;BME280;70701;44.452;18.652;2024-01-30T04:23:18;101205.16;;;-4.61;92.20
81230;BME280;70701;44.452;18.652;2024-01-30T04:25:44;101216.84;;;-4.21;90.84
81230;BME280;70701;44.452;18.652;2024-01-30T04:28:10;101214.75;;;-4.30;90.50
81230;BME280;70701;44.452;18.652;2024-01-30T04:30:37;101217.06;;;-4.13;90.13
81230;BME280;70701;44.452;18.652;2024-01-30T04:33:03;101220.03;;;-4.09;89.42
81230;BME280;70701;44.452;18.652;2024-01-30T04:35:29;101227.63;;;-4.06;89.96
81230;BME280;70701;44.452;18.652;2024-01-30T04:37:55;101226.53;;;-4.05;89.59
81230;BME280;70701;44.452;18.652;2024-01-30T04:40:21;101228.59;;;-3.92;88.77
81230;BME280;70701;44.452;18.652;2024-01-30T04:42:46;101225.72;;;-3.76;88.03
81230;BME280;70701;44.452;18.652;2024-01-30T04:45:12;101234.03;;;-3.92;87.89
81230;BME280;70701;44.452;18.652;2024-01-30T04:47:38;101242.19;;;-3.86;87.58
81230;BME280;70701;44.452;18.652;2024-01-30T04:50:07;101240.41;;;-4.06;87.57
81230;BME280;70701;44.452;18.652;2024-01-30T04:52:34;101233.97;;;-4.16;88.24
81230;BME280;70701;44.452;18.652;2024-01-30T04:54:59;101237.28;;;-4.24;88.40
81230;BME280;70701;44.452;18.652;2024-01-30T04:57:25;101237.47;;;-4.15;87.77
81230;BME280;70701;44.452;18.652;2024-01-30T04:59:51;101238.34;;;-4.20;87.86
81230;BME280;70701;44.452;18.652;2024-01-30T05:02:16;101226.81;;;-4.41;87.87
81230;BME280;70701;44.452;18.652;2024-01-30T05:04:42;101235.22;;;-4.37;87.83
81230;BME280;70701;44.452;18.652;2024-01-30T05:07:08;101238.75;;;-4.42;88.75
81230;BME280;70701;44.452;18.652;2024-01-30T05:09:33;101232.97;;;-4.30;88.96
81230;BME280;70701;44.452;18.652;2024-01-30T05:11:59;101228.16;;;-4.43;89.09
81230;BME280;70701;44.452;18.652;2024-01-30T05:14:24;101231.47;;;-4.46;89.20
81230;BME280;70701;44.452;18.652;2024-01-30T05:16:50;101232.56;;;-4.53;89.26
81230;BME280;70701;44.452;18.652;2024-01-30T05:19:16;101242.41;;;-4.62;89.32
81230;BME280;70701;44.452;18.652;2024-01-30T05:21:42;101228.28;;;-4.64;89.53
81230;BME280;70701;44.452;18.652;2024-01-30T05:24:08;101236.97;;;-4.62;89.42
81230;BME280;70701;44.452;18.652;2024-01-30T05:26:35;101235.00;;;-4.51;89.51
81230;BME280;70701;44.452;18.652;2024-01-30T05:29:01;101224.41;;;-4.53;88.94
81230;BME280;70701;44.452;18.652;2024-01-30T05:31:28;101225.78;;;-4.50;88.79
81230;BME280;70701;44.452;18.652;2024-01-30T05:33:54;101242.38;;;-4.52;88.66
81230;BME280;70701;44.452;18.652;2024-01-30T05:36:20;101213.97;;;-4.80;89.12
81230;BME280;70701;44.452;18.652;2024-01-30T05:38:47;101253.28;;;-4.57;89.04
81230;BME280;70701;44.452;18.652;2024-01-30T05:41:12;101243.28;;;-4.72;89.57
81230;BME280;70701;44.452;18.652;2024-01-30T05:43:38;101251.97;;;-4.70;89.78
81230;BME280;70701;44.452;18.652;2024-01-30T05:46:04;101261.78;;;-4.69;90.12
81230;BME280;70701;44.452;18.652;2024-01-30T05:48:29;101257.75;;;-4.76;89.30
81230;BME280;70701;44.452;18.652;2024-01-30T05:50:56;101230.91;;;-4.93;89.92
81230;BME280;70701;44.452;18.652;2024-01-30T05:53:22;101249.09;;;-4.89;90.35
81230;BME280;70701;44.452;18.652;2024-01-30T05:55:47;101247.22;;;-4.98;90.74
81230;BME280;70701;44.452;18.652;2024-01-30T05:58:13;101252.41;;;-5.02;90.69
81230;BME280;70701;44.452;18.652;2024-01-30T06:00:38;101255.63;;;-4.95;91.08
81230;BME280;70701;44.452;18.652;2024-01-30T06:03:04;101247.16;;;-4.88;90.22
81230;BME280;70701;44.452;18.652;2024-01-30T06:05:30;101260.81;;;-4.93;90.23
81230;BME280;70701;44.452;18.652;2024-01-30T06:07:55;101255.63;;;-4.95;89.84
81230;BME280;70701;44.452;18.652;2024-01-30T06:10:21;101254.31;;;-4.97;89.85
81230;BME280;70701;44.452;18.652;2024-01-30T06:12:47;101255.13;;;-5.07;90.63
81230;BME280;70701;44.452;18.652;2024-01-30T06:15:13;101262.19;;;-5.01;90.49
81230;BME280;70701;44.452;18.652;2024-01-30T06:17:39;101250.28;;;-5.10;90.43
81230;BME280;70701;44.452;18.652;2024-01-30T06:20:06;101262.47;;;-5.02;90.97
81230;BME280;70701;44.452;18.652;2024-01-30T06:22:31;101268.44;;;-5.05;90.91
81230;BME280;70701;44.452;18.652;2024-01-30T06:24:57;101245.66;;;-5.15;90.47
81230;BME280;70701;44.452;18.652;2024-01-30T06:27:22;101257.88;;;-5.12;90.23
81230;BME280;70701;44.452;18.652;2024-01-30T06:29:48;101253.53;;;-5.13;90.92
81230;BME280;70701;44.452;18.652;2024-01-30T06:32:14;101257.56;;;-5.00;91.32
81230;BME280;70701;44.452;18.652;2024-01-30T06:34:40;101227.75;;;-5.21;90.16
81230;BME280;70701;44.452;18.652;2024-01-30T06:37:06;101251.34;;;-5.16;90.78
81230;BME280;70701;44.452;18.652;2024-01-30T06:39:32;101235.09;;;-5.21;91.38
81230;BME280;70701;44.452;18.652;2024-01-30T06:41:57;101254.56;;;-4.99;91.55
81230;BME280;70701;44.452;18.652;2024-01-30T06:44:23;101257.50;;;-4.90;91.15
81230;BME280;70701;44.452;18.652;2024-01-30T06:46:48;101253.22;;;-5.01;91.76
81230;BME280;70701;44.452;18.652;2024-01-30T06:49:14;101248.63;;;-5.11;91.95
81230;BME280;70701;44.452;18.652;2024-01-30T06:51:40;101258.16;;;-5.09;91.97
81230;BME280;70701;44.452;18.652;2024-01-30T06:54:05;101260.06;;;-5.14;92.68
81230;BME280;70701;44.452;18.652;2024-01-30T06:56:31;101215.03;;;-5.41;93.30
81230;BME280;70701;44.452;18.652;2024-01-30T06:58:57;101243.78;;;-5.14;93.16
81230;BME280;70701;44.452;18.652;2024-01-30T07:01:30;101259.75;;;-5.02;93.32
81230;BME280;70701;44.452;18.652;2024-01-30T07:03:57;101260.47;;;-4.81;92.52
81230;BME280;70701;44.452;18.652;2024-01-30T07:06:22;101274.00;;;-4.71;92.01
81230;BME280;70701;44.452;18.652;2024-01-30T07:08:51;101267.25;;;-4.79;92.10
81230;BME280;70701;44.452;18.652;2024-01-30T07:11:20;101270.47;;;-4.72;91.42
81230;BME280;70701;44.452;18.652;2024-01-30T07:13:47;101264.50;;;-4.74;91.48
81230;BME280;70701;44.452;18.652;2024-01-30T07:16:14;101262.91;;;-4.80;91.26
81230;BME280;70701;44.452;18.652;2024-01-30T07:18:40;101274.50;;;-4.59;91.41
81230;BME280;70701;44.452;18.652;2024-01-30T07:21:05;101269.63;;;-4.62;91.09
81230;BME280;70701;44.452;18.652;2024-01-30T07:23:31;101261.19;;;-4.60;90.75
81230;BME280;70701;44.452;18.652;2024-01-30T07:25:57;101270.97;;;-4.54;90.30
81230;BME280;70701;44.452;18.652;2024-01-30T07:28:23;101267.66;;;-4.51;90.19
81230;BME280;70701;44.452;18.652;2024-01-30T07:30:49;101268.16;;;-4.39;90.58
81230;BME280;70701;44.452;18.652;2024-01-30T07:33:15;101225.00;;;-4.56;89.50
81230;BME280;70701;44.452;18.652;2024-01-30T07:35:41;101268.94;;;-4.33;89.38
81230;BME280;70701;44.452;18.652;2024-01-30T07:38:07;101268.69;;;-4.02;89.04
81230;BME280;70701;44.452;18.652;2024-01-30T07:40:32;101270.75;;;-3.84;87.74
81230;BME280;70701;44.452;18.652;2024-01-30T07:42:58;101272.59;;;-4.14;88.66
81230;BME280;70701;44.452;18.652;2024-01-30T07:45:25;101274.13;;;-4.42;90.57
81230;BME280;70701;44.452;18.652;2024-01-30T07:47:53;101280.13;;;-4.45;91.01
81230;BME280;70701;44.452;18.652;2024-01-30T07:50:18;101257.81;;;-4.92;91.24
81230;BME280;70701;44.452;18.652;2024-01-30T07:52:44;101275.47;;;-4.89;91.86
81230;BME280;70701;44.452;18.652;2024-01-30T07:55:10;101288.28;;;-4.95;91.93
81230;BME280;70701;44.452;18.652;2024-01-30T07:57:38;101278.84;;;-5.18;92.04
81230;BME280;70701;44.452;18.652;2024-01-30T08:00:04;101289.00;;;-4.79;92.30
81230;BME280;70701;44.452;18.652;2024-01-30T08:02:32;101275.84;;;-4.56;91.54
81230;BME280;70701;44.452;18.652;2024-01-30T08:04:58;101276.44;;;-4.15;89.47
81230;BME280;70701;44.452;18.652;2024-01-30T08:07:23;101286.72;;;-4.51;90.89
81230;BME280;70701;44.452;18.652;2024-01-30T08:09:50;101281.41;;;-4.32;90.43
81230;BME280;70701;44.452;18.652;2024-01-30T08:12:15;101271.69;;;-4.38;91.18
81230;BME280;70701;44.452;18.652;2024-01-30T08:14:41;101277.25;;;-4.19;91.68
81230;BME280;70701;44.452;18.652;2024-01-30T08:17:07;101282.31;;;-3.68;90.98
81230;BME280;70701;44.452;18.652;2024-01-30T08:19:33;101266.09;;;-3.83;90.10
81230;BME280;70701;44.452;18.652;2024-01-30T08:21:59;101263.56;;;-3.45;89.36
81230;BME280;70701;44.452;18.652;2024-01-30T08:24:24;101279.19;;;-3.27;88.77
81230;BME280;70701;44.452;18.652;2024-01-30T08:26:50;101275.47;;;-3.36;89.08
81230;BME280;70701;44.452;18.652;2024-01-30T08:29:16;101282.69;;;-2.97;88.54
81230;BME280;70701;44.452;18.652;2024-01-30T08:31:41;101269.47;;;-2.85;87.58
81230;BME280;70701;44.452;18.652;2024-01-30T08:34:07;101276.72;;;-2.56;86.73
81230;BME280;70701;44.452;18.652;2024-01-30T08:36:33;101273.94;;;-2.32;86.40
81230;BME280;70701;44.452;18.652;2024-01-30T08:38:58;101272.00;;;-2.12;85.08
81230;BME280;70701;44.452;18.652;2024-01-30T08:41:25;101278.19;;;-2.07;84.73
81230;BME280;70701;44.452;18.652;2024-01-30T08:43:52;101266.97;;;-2.05;84.91
81230;BME280;70701;44.452;18.652;2024-01-30T08:46:18;101265.63;;;-1.89;84.82
81230;BME280;70701;44.452;18.652;2024-01-30T08:48:44;101268.69;;;-1.77;85.19
81230;BME280;70701;44.452;18.652;2024-01-30T08:51:10;101268.03;;;-1.54;84.60
81230;BME280;70701;44.452;18.652;2024-01-30T08:53:36;101257.31;;;-1.51;84.10
81230;BME280;70701;44.452;18.652;2024-01-30T08:56:03;101264.34;;;-1.31;83.57
81230;BME280;70701;44.452;18.652;2024-01-30T08:58:29;101269.41;;;-1.38;84.31
81230;BME280;70701;44.452;18.652;2024-01-30T09:00:57;101261.69;;;-1.36;84.17
81230;BME280;70701;44.452;18.652;2024-01-30T09:03:22;101253.19;;;-1.21;84.53
81230;BME280;70701;44.452;18.652;2024-01-30T09:05:48;101245.53;;;-1.05;83.71
81230;BME280;70701;44.452;18.652;2024-01-30T09:08:14;101261.72;;;-0.81;83.56
81230;BME280;70701;44.452;18.652;2024-01-30T09:10:40;101257.88;;;-0.80;83.16
81230;BME280;70701;44.452;18.652;2024-01-30T09:13:06;101268.56;;;-0.55;83.00
81230;BME280;70701;44.452;18.652;2024-01-30T09:15:32;101252.00;;;-0.73;83.18
81230;BME280;70701;44.452;18.652;2024-01-30T09:17:57;101248.19;;;-0.49;83.15
81230;BME280;70701;44.452;18.652;2024-01-30T09:20:23;101258.97;;;-0.30;81.89
81230;BME280;70701;44.452;18.652;2024-01-30T09:22:49;101257.88;;;-0.29;82.30
81230;BME280;70701;44.452;18.652;2024-01-30T09:25:15;101265.41;;;-0.12;81.39
81230;BME280;70701;44.452;18.652;2024-01-30T09:27:40;101250.28;;;-0.10;80.65
81230;BME280;70701;44.452;18.652;2024-01-30T09:30:07;101256.72;;;0.08;80.29
81230;BME280;70701;44.452;18.652;2024-01-30T09:32:32;101258.56;;;-0.01;81.59
81230;BME280;70701;44.452;18.652;2024-01-30T09:34:58;101251.16;;;-0.01;81.69
81230;BME280;70701;44.452;18.652;2024-01-30T09:37:24;101243.31;;;0.07;82.13
81230;BME280;70701;44.452;18.652;2024-01-30T09:39:49;101242.88;;;0.36;81.99
81230;BME280;70701;44.452;18.652;2024-01-30T09:44:51;101252.09;;;0.49;82.13
81230;BME280;70701;44.452;18.652;2024-01-30T09:47:17;101219.19;;;0.49;81.53
81230;BME280;70701;44.452;18.652;2024-01-30T09:49:43;101226.94;;;0.78;81.24
81230;BME280;70701;44.452;18.652;2024-01-30T09:52:11;101230.38;;;1.01;79.89
81230;BME280;70701;44.452;18.652;2024-01-30T09:54:38;101239.63;;;1.14;78.50
81230;BME280;70701;44.452;18.652;2024-01-30T09:57:04;101231.13;;;0.84;79.76
81230;BME280;70701;44.452;18.652;2024-01-30T09:59:31;101228.06;;;0.77;79.72
81230;BME280;70701;44.452;18.652;2024-01-30T10:01:57;101200.19;;;0.92;78.84
81230;BME280;70701;44.452;18.652;2024-01-30T10:04:23;101223.97;;;1.14;78.55
81230;BME280;70701;44.452;18.652;2024-01-30T10:06:51;101211.09;;;1.32;77.57
81230;BME280;70701;44.452;18.652;2024-01-30T10:09:17;101221.47;;;1.62;76.52
81230;BME280;70701;44.452;18.652;2024-01-30T10:11:43;101215.31;;;1.73;75.79
81230;BME280;70701;44.452;18.652;2024-01-30T10:14:09;101201.72;;;1.77;75.81
81230;BME280;70701;44.452;18.652;2024-01-30T10:16:36;101206.72;;;1.92;75.09
81230;BME280;70701;44.452;18.652;2024-01-30T10:19:02;101208.97;;;2.08;74.76
81230;BME280;70701;44.452;18.652;2024-01-30T10:21:29;101191.81;;;2.20;74.65
81230;BME280;70701;44.452;18.652;2024-01-30T10:23:55;101165.50;;;2.01;75.38
81230;BME280;70701;44.452;18.652;2024-01-30T10:26:21;101184.31;;;2.29;74.29
81230;BME280;70701;44.452;18.652;2024-01-30T10:28:48;101182.50;;;2.42;73.54
81230;BME280;70701;44.452;18.652;2024-01-30T10:31:18;101182.50;;;2.42;73.60
81230;BME280;70701;44.452;18.652;2024-01-30T10:33:46;101148.03;;;2.44;73.10
81230;BME280;70701;44.452;18.652;2024-01-30T10:36:13;101169.59;;;2.72;72.69
81230;BME280;70701;44.452;18.652;2024-01-30T10:38:42;101158.09;;;2.70;72.27
81230;BME280;70701;44.452;18.652;2024-01-30T10:41:08;101169.31;;;2.65;71.96
81230;BME280;70701;44.452;18.652;2024-01-30T10:43:41;101136.31;;;2.65;71.89
81230;BME280;70701;44.452;18.652;2024-01-30T10:46:18;101154.91;;;2.89;71.90
81230;BME280;70701;44.452;18.652;2024-01-30T10:48:58;101153.59;;;2.95;71.63
81230;BME280;70701;44.452;18.652;2024-01-30T10:51:26;101142.97;;;2.85;72.49
81230;BME280;70701;44.452;18.652;2024-01-30T10:53:52;101150.28;;;3.10;71.21
81230;BME280;70701;44.452;18.652;2024-01-30T10:56:21;101122.38;;;2.91;71.66
81230;BME280;70701;44.452;18.652;2024-01-30T10:58:48;101143.22;;;3.22;71.47
81230;BME280;70701;44.452;18.652;2024-01-30T11:01:15;101117.22;;;3.31;70.30
81230;BME280;70701;44.452;18.652;2024-01-30T11:03:43;101124.94;;;3.38;69.25
81230;BME280;70701;44.452;18.652;2024-01-30T11:06:11;101106.94;;;3.41;68.82
81230;BME280;70701;44.452;18.652;2024-01-30T11:08:44;101124.13;;;3.59;68.64
81230;BME280;70701;44.452;18.652;2024-01-30T11:11:10;101123.22;;;3.67;67.54
81230;BME280;70701;44.452;18.652;2024-01-30T11:13:37;101120.16;;;3.81;66.74
81230;BME280;70701;44.452;18.652;2024-01-30T11:16:04;101113.47;;;3.69;66.19
81230;BME280;70701;44.452;18.652;2024-01-30T11:18:31;101110.69;;;3.91;65.39
81230;BME280;70701;44.452;18.652;2024-01-30T11:21:01;101110.19;;;3.88;65.01
81230;BME280;70701;44.452;18.652;2024-01-30T11:23:28;101108.38;;;4.05;64.29
81230;BME280;70701;44.452;18.652;2024-01-30T11:25:54;101105.63;;;4.05;64.47
81230;BME280;70701;44.452;18.652;2024-01-30T11:28:22;101104.50;;;4.18;64.43
81230;BME280;70701;44.452;18.652;2024-01-30T11:30:48;101082.66;;;4.25;64.08
81230;BME280;70701;44.452;18.652;2024-01-30T11:33:27;101092.22;;;4.28;64.05
81230;BME280;70701;44.452;18.652;2024-01-30T11:35:57;101098.41;;;4.37;64.06
81230;BME280;70701;44.452;18.652;2024-01-30T11:38:24;101089.34;;;4.49;62.79
81230;BME280;70701;44.452;18.652;2024-01-30T11:40:51;101089.13;;;4.42;62.80
81230;BME280;70701;44.452;18.652;2024-01-30T11:43:18;101075.41;;;4.58;63.15
81230;BME280;70701;44.452;18.652;2024-01-30T11:45:45;101081.75;;;4.71;62.65
81230;BME280;70701;44.452;18.652;2024-01-30T11:48:14;101080.34;;;4.89;62.34
81230;BME280;70701;44.452;18.652;2024-01-30T11:50:40;101073.34;;;4.79;62.17
81230;BME280;70701;44.452;18.652;2024-01-30T11:53:06;101065.63;;;4.85;62.49
81230;BME280;70701;44.452;18.652;2024-01-30T11:55:33;101072.63;;;4.95;62.18
81230;BME280;70701;44.452;18.652;2024-01-30T11:57:58;101058.50;;;5.12;61.46
81230;BME280;70701;44.452;18.652;2024-01-30T12:00:25;101047.47;;;5.40;60.73
81230;BME280;70701;44.452;18.652;2024-01-30T12:02:52;101053.00;;;5.84;59.31
81230;BME280;70701;44.452;18.652;2024-01-30T12:05:27;101049.03;;;5.98;59.33
81230;BME280;70701;44.452;18.652;2024-01-30T12:07:53;101051.38;;;5.83;59.46
81230;BME280;70701;44.452;18.652;2024-01-30T12:10:19;101043.38;;;5.78;58.98
81230;BME280;70701;44.452;18.652;2024-01-30T12:12:47;101032.47;;;5.70;59.51
81230;BME280;70701;44.452;18.652;2024-01-30T12:15:13;101043.88;;;5.68;58.78
81230;BME280;70701;44.452;18.652;2024-01-30T12:17:40;101039.66;;;5.58;58.06
81230;BME280;70701;44.452;18.652;2024-01-30T12:25:11;101023.63;;;5.48;57.26
81230;BME280;70701;44.452;18.652;2024-01-30T12:27:38;101024.75;;;5.47;56.84
81230;BME280;70701;44.452;18.652;2024-01-30T12:30:08;101021.28;;;5.50;56.78
81230;BME280;70701;44.452;18.652;2024-01-30T12:32:35;101026.94;;;5.54;56.62
81230;BME280;70701;44.452;18.652;2024-01-30T12:35:02;101002.09;;;5.57;57.52
81230;BME280;70701;44.452;18.652;2024-01-30T12:37:27;101008.47;;;5.74;56.96
81230;BME280;70701;44.452;18.652;2024-01-30T12:39:54;101017.44;;;5.99;55.49
81230;BME280;70701;44.452;18.652;2024-01-30T12:42:20;101013.38;;;5.80;55.06
81230;BME280;70701;44.452;18.652;2024-01-30T12:44:49;101011.31;;;5.77;54.86